Time;durP1;ratioP1;P1;durP2;ratioP2;P2;SDS_P1;SDS_P2;PMS_P1;PMS_P2;Temp;Humidity;BMP_temperature;BMP_pressure;BME280_temperature;BME280_humidity;BME280_pressure;Samples;Min_cycle;Max_cycle;Signal;HPM_P1;HPM_P2
2022/02/10 00:16:00;;;;;;;23.15;12.50;;;;;;;-142.75;100.00;78145.38;5041653;28;20124;-68
2022/02/10 00:21:04;;;;;;;23.50;13.25;;;;;;;-142.75;100.00;78151.28;5032513;28;20095;-68
2022/02/10 00:23:49;;;;;;;22.30;13.27;;;;;;;-142.75;100.00;78145.38;5049199;28;20048;-68
2022/02/10 00:34:32;;;;;;;24.33;13.88;;;;;;;-142.75;100.00;78143.41;5050475;28;20044;-68
2022/02/10 00:37:10;;;;;;;21.83;14.35;;;;;;;-142.75;100.00;78149.31;5048039;28;20033;-68
2022/02/10 00:42:07;;;;;;;24.83;14.43;;;;;;;-142.75;100.00;78133.56;5039899;28;20040;-68
2022/02/10 00:44:32;;;;;;;26.48;15.18;;;;;;;-142.75;100.00;78133.56;5036269;28;20036;-68
2022/02/10 00:46:57;;;;;;;25.83;14.82;;;;;;;-142.75;100.00;78135.53;5042232;28;20017;-69
2022/02/10 00:49:23;;;;;;;25.02;15.63;;;;;;;-142.75;100.00;78145.38;5041657;28;20087;-68
2022/02/10 00:51:49;;;;;;;30.65;16.83;;;;;;;-142.75;100.00;78145.38;5042899;28;20082;-68
2022/02/10 00:54:18;;;;;;;27.08;15.23;;;;;;;-142.75;100.00;78151.28;5046629;28;20032;-68
2022/02/10 00:56:45;;;;;;;28.75;16.75;;;;;;;-142.75;100.00;78145.38;5043144;28;20098;-68
2022/02/10 00:59:31;;;;;;;28.95;15.70;;;;;;;-142.75;100.00;78149.31;5032631;28;20031;-68
2022/02/10 01:02:21;;;;;;;28.30;15.05;;;;;;;-142.75;100.00;78145.38;5032868;28;20037;-68
2022/02/10 01:10:30;;;;;;;30.67;16.73;;;;;;;-142.75;100.00;78121.75;5041801;28;20063;-68
2022/02/10 01:31:50;;;;;;;31.43;17.13;;;;;;;-142.75;100.00;78107.97;5049883;28;20071;-67
2022/02/10 01:34:16;;;;;;;32.75;18.23;;;;;;;-142.75;100.00;78100.09;5045384;28;20060;-70
2022/02/10 01:36:41;;;;;;;30.58;17.73;;;;;;;-142.75;100.00;78098.13;5048283;28;20017;-68
2022/02/10 01:39:07;;;;;;;33.20;17.75;;;;;;;-142.75;100.00;78111.91;5038366;28;20028;-69
2022/02/10 02:03:27;;;;;;;32.17;17.27;;;;;;;-142.75;100.00;78068.59;5028109;28;20522;-69
2022/02/10 02:05:59;;;;;;;36.08;18.55;;;;;;;-142.75;100.00;78074.50;5037989;28;20097;-68
2022/02/10 02:08:30;;;;;;;33.88;18.65;;;;;;;-142.75;100.00;78066.63;5043628;28;20040;-68
2022/02/10 02:10:55;;;;;;;33.70;18.02;;;;;;;-142.75;100.00;78064.66;5037489;28;20474;-68
2022/02/10 02:13:22;;;;;;;29.80;18.45;;;;;;;-142.75;100.00;78072.53;5035294;28;20040;-70
2022/02/10 02:15:47;;;;;;;29.40;17.38;;;;;;;-142.75;100.00;78068.59;5037703;28;20033;-68
2022/02/10 02:18:13;;;;;;;31.23;17.45;;;;;;;-142.75;100.00;78058.72;5045701;28;20082;-69
2022/02/10 02:20:38;;;;;;;34.17;18.08;;;;;;;-142.75;100.00;78060.72;5046550;28;20025;-68
2022/02/10 02:23:04;;;;;;;31.83;18.10;;;;;;;-142.75;100.00;78058.72;5031874;28;20026;-69
2022/02/10 02:25:30;;;;;;;33.20;18.60;;;;;;;-142.75;100.00;78056.78;5034439;28;20411;-68
2022/02/10 02:27:57;;;;;;;32.00;19.33;;;;;;;-142.75;100.00;78062.69;5035399;28;20122;-68
2022/02/10 02:30:32;;;;;;;33.53;18.73;;;;;;;-142.75;100.00;78064.66;5029257;28;20114;-68
2022/02/10 02:36:20;;;;;;;37.47;19.90;;;;;;;-142.75;100.00;78054.81;5041000;28;20510;-69
2022/02/10 03:08:24;;;;;;;38.22;20.35;;;;;;;-142.75;100.00;78054.81;5033807;28;20029;-67
2022/02/10 03:13:22;;;;;;;36.03;18.05;;;;;;;-142.75;100.00;78048.88;5052209;28;19912;-67
2022/02/10 03:21:15;;;;;;;38.53;18.35;;;;;;;-142.75;100.00;78033.13;5051842;28;20036;-67
2022/02/10 04:20:51;;;;;;;52.88;22.20;;;;;;;-142.75;100.00;78068.59;5051308;28;20043;-68
2022/02/10 05:00:11;;;;;;;57.93;20.93;;;;;;;-142.75;100.00;78056.78;4976204;28;20567;-67
2022/02/10 05:08:38;;;;;;;53.83;19.47;;;;;;;-142.75;100.00;78050.84;5029860;28;20057;-67
2022/02/10 05:18:40;;;;;;;46.15;19.73;;;;;;;-142.75;100.00;78042.97;5030207;28;20038;-67
2022/02/10 05:34:49;;;;;;;46.75;18.73;;;;;;;-142.75;100.00;78027.22;5029783;28;20040;-67
2022/02/10 05:37:17;;;;;;;50.42;18.58;;;;;;;-142.75;100.00;78037.06;5029698;28;20407;-67
2022/02/10 05:39:46;;;;;;;48.97;19.00;;;;;;;-142.75;100.00;78042.97;5028113;28;20122;-67
2022/02/10 05:47:45;;;;;;;35.47;14.03;;;;;;;-142.75;100.00;78046.91;5030046;28;20638;-67
2022/02/10 06:38:27;;;;;;;15.73;8.60;;;;;;;-142.75;100.00;78113.88;5029243;28;20499;-67
2022/02/10 06:49:45;;;;;;;7.40;4.27;;;;;;;-142.75;100.00;78204.47;5034231;28;20103;-67
2022/02/10 06:52:19;;;;;;;5.33;3.77;;;;;;;-142.75;100.00;78206.44;5033783;28;20712;-67
2022/02/10 06:55:13;;;;;;;8.50;4.33;;;;;;;-142.75;100.00;78214.31;5034095;28;20041;-67
2022/02/10 07:08:33;;;;;;;11.53;4.03;;;;;;;-142.75;100.00;78232.03;5053582;28;20021;-65
2022/02/10 07:11:15;;;;;;;7.43;3.93;;;;;;;-142.75;100.00;78228.09;5053715;28;20074;-65
2022/02/10 07:44:49;;;;;;;10.30;3.33;;;;;;;-142.75;100.00;78212.34;5042401;28;20098;-66
2022/02/10 07:54:44;;;;;;;8.40;2.13;;;;;;;-142.75;100.00;78232.03;5051925;28;20075;-67
2022/02/10 09:02:25;;;;;;;5.63;1.90;;;;;;;-142.75;100.00;78190.69;5042816;22;20051;-64
2022/02/10 09:05:58;;;;;;;7.20;1.90;;;;;;;-142.75;100.00;78190.69;5008846;28;20085;-67
2022/02/10 09:47:35;;;;;;;4.20;1.10;;;;;;;-142.75;100.00;78137.50;5029905;28;20043;-67
2022/02/10 09:59:53;;;;;;;8.25;1.88;;;;;;;-142.75;100.00;78082.38;5029742;28;20034;-68
2022/02/10 10:02:35;;;;;;;7.63;2.50;;;;;;;-142.75;100.00;78082.38;5029754;28;20483;-68
2022/02/10 10:05:14;;;;;;;7.88;2.72;;;;;;;-142.75;100.00;78094.19;5028734;28;20075;-68
2022/02/10 10:08:08;;;;;;;8.57;2.30;;;;;;;-142.75;100.00;78076.47;5029270;28;20029;-68
2022/02/10 10:19:04;;;;;;;5.57;1.90;;;;;;;-142.75;100.00;78082.38;5030332;28;20061;-68
2022/02/10 10:25:15;;;;;;;8.98;2.53;;;;;;;-142.75;100.00;78086.31;5030490;28;20056;-68
2022/02/10 10:57:05;;;;;;;5.55;1.80;;;;;;;-142.75;100.00;78127.66;5010612;28;20044;-68
2022/02/10 10:59:42;;;;;;;6.63;1.90;;;;;;;-142.75;100.00;78125.69;5010230;28;20032;-68
2022/02/10 11:38:11;;;;;;;7.43;1.40;;;;;;;-142.75;100.00;78058.72;5013299;28;20057;-67
2022/02/10 11:41:23;;;;;;;5.25;1.50;;;;;;;-142.75;100.00;78080.41;5013394;28;20025;-67
2022/02/10 12:30:19;;;;;;;8.20;1.83;;;;;;;-142.75;100.00;78161.13;5012153;28;20503;-68
2022/02/10 14:09:06;;;;;;;6.03;1.63;;;;;;;-142.75;100.00;78165.06;5011063;28;20040;-68
2022/02/10 14:15:13;;;;;;;10.13;1.10;;;;;;;-142.75;100.00;78139.47;5030750;28;20041;-67
2022/02/10 14:17:12;;;;;;;3.80;1.10;;;;;;;-142.75;100.00;78147.34;5006287;28;20061;-67
2022/02/10 14:19:47;;;;;;;8.17;1.30;;;;;;;-142.75;100.00;78143.41;5009079;28;20018;-67
2022/02/10 14:27:25;;;;;;;6.07;1.13;;;;;;;-142.75;100.00;78143.41;5010804;28;20072;-68
2022/02/10 14:29:51;;;;;;;4.55;1.17;;;;;;;-142.75;100.00;78143.41;5010423;28;20026;-67
2022/02/10 14:32:21;;;;;;;5.65;1.15;;;;;;;-142.75;100.00;78149.31;5009509;28;20496;-68
2022/02/10 14:34:48;;;;;;;3.70;1.20;;;;;;;-142.75;100.00;78172.94;5024066;28;20037;-69
2022/02/10 15:13:12;;;;;;;6.90;1.30;;;;;;;-142.75;100.00;78257.63;5032903;28;20031;-67
2022/02/10 15:29:30;;;;;;;5.00;1.30;;;;;;;-142.75;100.00;78287.16;5032169;28;20448;-67
2022/02/10 15:48:48;;;;;;;6.17;1.17;;;;;;;-142.75;100.00;78326.56;5031679;28;20048;-68
2022/02/10 15:55:54;;;;;;;11.40;1.57;;;;;;;-142.75;100.00;78344.28;5031794;28;20029;-67
2022/02/10 16:12:51;;;;;;;9.97;1.20;;;;;;;-142.75;100.00;78375.78;5031901;28;20036;-67
2022/02/10 16:17:12;;;;;;;6.90;1.70;;;;;;;-142.75;100.00;78360.03;5031725;28;20037;-67
2022/02/10 16:19:38;;;;;;;7.27;1.67;;;;;;;-142.75;100.00;78362.00;5031250;28;20025;-67
2022/02/10 16:24:37;;;;;;;10.67;1.23;;;;;;;-142.75;100.00;78371.84;5031386;28;20040;-68
2022/02/10 16:27:16;;;;;;;12.43;1.70;;;;;;;-142.75;100.00;78373.81;5031427;28;20108;-68
2022/02/10 16:29:42;;;;;;;9.07;1.30;;;;;;;-142.75;100.00;78375.78;5029895;28;20171;-66
2022/02/10 16:32:10;;;;;;;10.50;1.30;;;;;;;-142.75;100.00;78375.78;5031056;28;20096;-67
2022/02/10 16:34:38;;;;;;;7.67;1.30;;;;;;;-142.75;100.00;78391.53;5053331;22;20049;-68
2022/02/10 16:37:06;;;;;;;4.20;1.10;;;;;;;-142.75;100.00;78401.38;5049111;28;20059;-68
2022/02/10 16:39:31;;;;;;;5.70;1.30;;;;;;;-142.75;100.00;78401.38;5050455;28;20200;-68
2022/02/10 16:41:57;;;;;;;6.07;2.23;;;;;;;-142.75;100.00;78393.50;5052607;28;20021;-67
2022/02/10 16:44:22;;;;;;;3.90;1.17;;;;;;;-142.75;100.00;78393.50;5051719;28;20764;-67
2022/02/10 16:46:47;;;;;;;4.45;1.27;;;;;;;-142.75;100.00;78383.66;5050603;28;20271;-68
2022/02/10 16:49:16;;;;;;;9.57;1.50;;;;;;;-142.75;100.00;78389.56;5050869;28;20049;-67
2022/02/10 16:51:44;;;;;;;8.77;1.40;;;;;;;-142.75;100.00;78405.34;5051690;28;20622;-68
2022/02/10 16:54:19;;;;;;;7.47;1.83;;;;;;;-142.75;100.00;78411.25;5051565;28;20021;-67
2022/02/10 16:57:00;;;;;;;5.27;1.53;;;;;;;-142.75;100.00;78403.38;5051731;28;20025;-67
2022/02/10 16:59:37;;;;;;;8.13;1.37;;;;;;;-142.75;100.00;78407.31;5050631;28;20029;-67
2022/02/10 17:14:07;;;;;;;7.77;1.23;;;;;;;-142.75;100.00;78417.16;5050592;28;20041;-68
2022/02/10 17:20:47;;;;;;;6.80;1.63;;;;;;;-142.75;100.00;78430.94;5044338;28;20040;-67
2022/02/10 17:26:29;;;;;;;7.83;1.47;;;;;;;-142.75;100.00;78430.94;5050082;28;20055;-68
2022/02/10 17:28:54;;;;;;;8.87;2.23;;;;;;;-142.75;100.00;78428.97;5049764;28;20131;-67
2022/02/10 17:36:27;;;;;;;8.80;2.60;;;;;;;-142.75;100.00;78456.53;5048847;28;20025;-67
2022/02/10 17:44:37;;;;;;;7.30;1.70;;;;;;;-142.75;100.00;78460.47;5047924;28;20033;-67
2022/02/10 17:51:27;;;;;;;9.57;1.60;;;;;;;-142.75;100.00;78476.22;5046641;28;20408;-67
2022/02/10 17:52:45;;;;;;;10.27;2.23;;;;;;;-142.75;100.00;78484.09;5046776;28;20052;-67
2022/02/10 17:55:12;;;;;;;4.23;1.33;;;;;;;-142.75;100.00;78482.13;5047910;28;20021;-67
2022/02/10 17:57:37;;;;;;;6.17;1.20;;;;;;;-142.75;100.00;78488.03;5047464;28;20032;-67
2022/02/10 18:00:06;;;;;;;8.95;1.58;;;;;;;-142.75;100.00;78490.00;5046301;28;20402;-67
2022/02/10 18:02:31;;;;;;;7.10;1.30;;;;;;;-142.75;100.00;78501.84;5048388;28;20029;-67
2022/02/10 18:05:00;;;;;;;16.33;2.50;;;;;;;-142.75;100.00;78488.03;5046993;28;20087;-67
2022/02/10 18:07:25;;;;;;;6.57;1.50;;;;;;;-142.75;100.00;78491.97;5047606;28;20830;-67
2022/02/10 18:15:00;;;;;;;7.97;1.70;;;;;;;-142.75;100.00;78484.09;5051842;28;20315;-67
2022/02/10 18:17:30;;;;;;;5.27;1.60;;;;;;;-142.75;100.00;78478.19;5051524;28;20036;-68
2022/02/10 18:20:01;;;;;;;7.20;1.23;;;;;;;-142.75;100.00;78480.16;5051551;28;20032;-67
2022/02/10 18:22:58;;;;;;;4.70;1.37;;;;;;;-142.75;100.00;78482.13;5051742;28;20021;-68
2022/02/10 18:28:16;;;;;;;7.63;1.70;;;;;;;-142.75;100.00;78466.38;5051593;28;20379;-68
2022/02/10 18:37:47;;;;;;;10.80;1.77;;;;;;;-142.75;100.00;78490.00;5048096;28;20474;-67
2022/02/10 19:04:30;;;;;;;10.47;2.33;;;;;;;-142.75;100.00;78488.03;5051526;28;20040;-67
2022/02/10 19:09:03;;;;;;;11.43;2.30;;;;;;;-142.75;100.00;78493.97;5029615;28;20557;-68
2022/02/10 19:11:29;;;;;;;10.30;2.13;;;;;;;-142.75;100.00;78495.94;5050324;28;20029;-68
2022/02/10 19:13:56;;;;;;;8.77;1.98;;;;;;;-142.75;100.00;78488.03;5050182;28;20463;-67
2022/02/10 19:16:23;;;;;;;8.93;2.10;;;;;;;-142.75;100.00;78491.97;5047412;28;20044;-68
2022/02/10 19:18:48;;;;;;;8.40;1.80;;;;;;;-142.75;100.00;78507.75;5049401;28;20029;-68
2022/02/10 19:21:13;;;;;;;11.85;2.17;;;;;;;-142.75;100.00;78509.72;5048463;28;20035;-68
2022/02/10 19:23:38;;;;;;;6.78;1.83;;;;;;;-142.75;100.00;78505.78;5048809;28;20024;-67
2022/02/10 19:26:04;;;;;;;8.83;1.60;;;;;;;-142.75;100.00;78519.56;5050726;28;20056;-67
2022/02/10 19:28:29;;;;;;;9.43;1.80;;;;;;;-142.75;100.00;78519.56;5050217;28;20485;-67
2022/02/10 19:30:55;;;;;;;6.93;1.47;;;;;;;-142.75;100.00;78527.44;5050488;28;20479;-66
2022/02/10 19:33:21;;;;;;;9.43;2.23;;;;;;;-142.75;100.00;78529.41;5048346;28;20053;-66
2022/02/10 19:35:49;;;;;;;9.85;1.83;;;;;;;-142.75;100.00;78535.31;5048105;28;20498;-66
2022/02/10 19:38:19;;;;;;;7.47;1.47;;;;;;;-142.75;100.00;78531.38;5049648;28;20025;-66
2022/02/10 19:40:50;;;;;;;8.10;1.77;;;;;;;-142.75;100.00;78527.44;5050341;28;20025;-66
2022/02/10 19:43:16;;;;;;;7.20;1.80;;;;;;;-142.75;100.00;78529.41;5050087;28;20548;-66
2022/02/10 19:45:41;;;;;;;12.85;1.98;;;;;;;-142.75;100.00;78527.44;5050256;28;20041;-66
2022/02/10 19:48:07;;;;;;;11.07;1.83;;;;;;;-142.75;100.00;78511.69;5047405;28;20067;-65
2022/02/10 19:50:33;;;;;;;3.88;1.40;;;;;;;-142.75;100.00;78511.69;5050221;28;20450;-66
2022/02/10 19:53:04;;;;;;;6.87;1.50;;;;;;;-142.75;100.00;78519.56;5050121;28;20078;-66
2022/02/10 19:55:32;;;;;;;7.43;1.83;;;;;;;-142.75;100.00;78531.38;5047767;28;20112;-66
2022/02/10 19:58:07;;;;;;;7.27;1.80;;;;;;;-142.75;100.00;78529.41;5049561;28;20017;-66
2022/02/10 20:00:40;;;;;;;8.90;1.90;;;;;;;-142.75;100.00;78535.31;5050177;28;20116;-67
2022/02/10 20:03:13;;;;;;;12.27;2.13;;;;;;;-142.75;100.00;78537.28;5050482;28;20023;-67
2022/02/10 20:05:44;;;;;;;6.47;1.83;;;;;;;-142.75;100.00;78531.38;5046931;28;20021;-67
2022/02/10 20:08:10;;;;;;;6.37;1.43;;;;;;;-142.75;100.00;78529.41;5049772;28;20012;-67
2022/02/10 20:10:35;;;;;;;9.35;1.50;;;;;;;-142.75;100.00;78523.50;5048774;28;20465;-67
2022/02/10 20:13:00;;;;;;;7.83;1.53;;;;;;;-142.75;100.00;78535.31;5049720;28;20111;-67
2022/02/10 20:15:27;;;;;;;3.47;1.10;;;;;;;-142.75;100.00;78535.31;5049475;28;20598;-67
2022/02/10 20:17:55;;;;;;;5.73;1.70;;;;;;;-142.75;100.00;78539.25;5050046;28;20020;-67
2022/02/10 20:20:20;;;;;;;12.00;2.07;;;;;;;-142.75;100.00;78545.16;5049976;28;20024;-67
2022/02/10 20:22:46;;;;;;;9.60;1.80;;;;;;;-142.75;100.00;78547.13;5049958;28;20025;-66
2022/02/10 20:25:11;;;;;;;8.02;1.50;;;;;;;-142.75;100.00;78549.09;5050218;28;20740;-67
2022/02/10 20:27:37;;;;;;;5.05;1.38;;;;;;;-142.75;100.00;78547.13;5050115;28;20013;-67
2022/02/10 20:30:04;;;;;;;6.68;1.50;;;;;;;-142.75;100.00;78547.13;5050160;28;20187;-67
2022/02/10 20:32:30;;;;;;;8.90;1.50;;;;;;;-142.75;100.00;78539.25;5050474;28;20025;-67
2022/02/10 20:34:55;;;;;;;9.30;1.67;;;;;;;-142.75;100.00;78545.16;5048586;28;20017;-67
2022/02/10 20:37:23;;;;;;;5.53;1.40;;;;;;;-142.75;100.00;78549.09;5049383;28;20546;-67
2022/02/10 20:39:48;;;;;;;8.90;1.53;;;;;;;-142.75;100.00;78555.00;5049663;28;20025;-67
2022/02/10 20:42:17;;;;;;;5.18;1.70;;;;;;;-142.75;100.00;78556.97;5050041;28;20028;-67
2022/02/10 20:44:46;;;;;;;5.83;1.30;;;;;;;-142.75;100.00;78556.97;5049694;28;20033;-67
2022/02/10 20:47:14;;;;;;;5.57;1.30;;;;;;;-142.75;100.00;78558.94;5032390;28;20021;-68
2022/02/10 20:49:40;;;;;;;8.10;1.93;;;;;;;-142.75;100.00;78551.06;5047771;28;20021;-67
2022/02/10 20:52:05;;;;;;;7.68;1.60;;;;;;;-142.75;100.00;78543.19;5049602;28;20017;-67
2022/02/10 20:54:30;;;;;;;8.50;1.92;;;;;;;-142.75;100.00;78543.19;5049560;28;20036;-67
2022/02/10 20:56:56;;;;;;;8.53;1.43;;;;;;;-142.75;100.00;78555.00;5049487;28;20031;-67
2022/02/10 20:59:37;;;;;;;6.97;1.77;;;;;;;-142.75;100.00;78566.81;5049116;28;20468;-67
2022/02/10 21:02:10;;;;;;;9.00;1.40;;;;;;;-142.75;100.00;78562.88;5049378;28;20020;-67
2022/02/10 21:04:42;;;;;;;8.57;1.40;;;;;;;-142.75;100.00;78570.75;5049368;28;20017;-67
2022/02/10 21:09:42;;;;;;;;;;;;;;;-142.75;100.00;78566.81;5049581;28;20079;-67
2022/02/10 21:12:10;;;;;;;6.00;1.23;;;;;;;-142.75;100.00;78566.81;5049602;28;20354;-67
2022/02/10 21:14:35;;;;;;;4.87;1.00;;;;;;;-142.75;100.00;78566.81;5048898;28;20048;-67
2022/02/10 21:17:07;;;;;;;7.07;1.33;;;;;;;-142.75;100.00;78578.63;5048896;28;20118;-67
2022/02/10 21:19:33;;;;;;;7.70;1.40;;;;;;;-142.75;100.00;78586.53;5048407;28;20029;-67
2022/02/10 21:22:05;;;;;;;6.20;1.30;;;;;;;-142.75;100.00;78586.53;5048923;28;20043;-67
2022/02/10 21:24:30;;;;;;;7.90;1.50;;;;;;;-142.75;100.00;78594.41;5049080;28;20406;-67
2022/02/10 21:27:18;;;;;;;8.15;1.70;;;;;;;-142.75;100.00;78584.56;5048987;28;20032;-67
2022/02/10 21:29:41;;;;;;;9.80;1.40;;;;;;;-142.75;100.00;78590.47;5049533;28;20138;-67
2022/02/10 21:32:06;;;;;;;7.27;1.33;;;;;;;-142.75;100.00;78594.41;5049690;28;20029;-67
2022/02/10 21:34:45;;;;;;;8.55;1.63;;;;;;;-142.75;100.00;78594.41;5049638;28;20267;-67
2022/02/10 21:37:13;;;;;;;9.30;1.77;;;;;;;-142.75;100.00;78586.53;5049745;28;20033;-67
2022/02/10 21:39:50;;;;;;;6.53;1.20;;;;;;;-142.75;100.00;78586.53;5049296;28;20402;-67
2022/02/10 21:53:41;;;;;;;9.00;1.50;;;;;;;-142.75;100.00;78612.13;5048495;28;20040;-69
2022/02/10 22:07:01;;;;;;;6.73;1.33;;;;;;;-142.75;100.00;78610.16;5049669;28;20275;-67
2022/02/10 22:09:27;;;;;;;4.13;1.10;;;;;;;-142.75;100.00;78608.19;5049018;28;20662;-67
2022/02/10 22:20:12;;;;;;;4.33;1.13;;;;;;;-142.75;100.00;78620.00;5048158;28;20029;-67
2022/02/10 22:22:49;;;;;;;5.70;1.43;;;;;;;-142.75;100.00;78629.84;5049196;28;20025;-66
2022/02/10 22:25:15;;;;;;;;;;;;;;;-142.75;100.00;78637.72;5049071;28;20633;-66
2022/02/10 22:27:45;;;;;;;14.93;1.40;;;;;;;-142.75;100.00;78629.84;5048756;28;19913;-66
2022/02/10 22:30:20;;;;;;;9.40;1.33;;;;;;;-142.75;100.00;78637.72;5048645;28;20032;-66
2022/02/10 22:35:12;;;;;;;9.77;2.00;;;;;;;-142.75;100.00;78631.81;5068740;22;20427;-66
2022/02/10 22:37:39;;;;;;;7.93;1.97;;;;;;;-142.75;100.00;78639.69;5026298;28;20307;-66
2022/02/10 22:40:11;;;;;;;10.13;1.67;;;;;;;-142.75;100.00;78635.75;5027490;28;20418;-67
2022/02/10 22:42:37;;;;;;;5.90;1.50;;;;;;;-142.75;100.00;78633.78;5029466;28;20030;-66
2022/02/10 22:45:02;;;;;;;6.77;1.77;;;;;;;-142.75;100.00;78629.84;5029044;28;20067;-67
2022/02/10 22:47:27;;;;;;;8.43;1.48;;;;;;;-142.75;100.00;78625.91;5029100;28;20801;-65
2022/02/10 22:49:53;;;;;;;6.80;1.70;;;;;;;-142.75;100.00;78629.84;5028830;28;22080;-66
2022/02/10 22:52:18;;;;;;;11.57;1.60;;;;;;;-142.75;100.00;78637.72;5028917;28;20284;-66
2022/02/10 22:54:43;;;;;;;6.90;1.23;;;;;;;-142.75;100.00;78649.53;5027663;28;20367;-67
2022/02/10 22:57:09;;;;;;;8.90;1.03;;;;;;;-142.75;100.00;78647.56;5030176;28;20778;-66
2022/02/10 22:59:34;;;;;;;8.57;1.45;;;;;;;-142.75;100.00;78645.59;5031123;28;20025;-66
2022/02/10 23:02:00;;;;;;;8.93;1.55;;;;;;;-142.75;100.00;78641.66;5031133;28;20032;-67
2022/02/10 23:04:25;;;;;;;7.28;1.30;;;;;;;-142.75;100.00;78637.72;5031666;28;20029;-66
2022/02/10 23:06:54;;;;;;;9.95;1.73;;;;;;;-142.75;100.00;78649.53;5031191;28;20027;-67
2022/02/10 23:09:40;;;;;;;8.83;1.30;;;;;;;-142.75;100.00;78659.38;5031020;28;20031;-67
2022/02/10 23:12:06;;;;;;;8.83;1.83;;;;;;;-142.75;100.00;78641.66;5032731;28;20445;-66
2022/02/10 23:14:31;;;;;;;7.38;1.33;;;;;;;-142.75;100.00;78641.66;5030251;28;20029;-66
2022/02/10 23:16:59;;;;;;;14.00;1.80;;;;;;;-142.75;100.00;78649.53;5030879;28;20036;-67
2022/02/10 23:19:24;;;;;;;12.03;1.87;;;;;;;-142.75;100.00;78653.47;5031975;28;20033;-66
2022/02/10 23:21:49;;;;;;;13.53;3.60;;;;;;;-142.75;100.00;78653.47;5032290;28;20026;-66
2022/02/10 23:24:14;;;;;;;14.03;1.73;;;;;;;-142.75;100.00;78659.38;5032180;28;20830;-65
2022/02/10 23:26:40;;;;;;;11.80;1.65;;;;;;;-142.75;100.00;78661.34;5032152;28;20029;-67
2022/02/10 23:29:05;;;;;;;6.25;1.20;;;;;;;-142.75;100.00;78661.34;5031825;28;20032;-67
2022/02/10 23:31:30;;;;;;;12.07;2.10;;;;;;;-142.75;100.00;78653.47;5032124;28;20519;-67
2022/02/10 23:33:59;;;;;;;8.73;1.45;;;;;;;-142.75;100.00;78657.41;5032314;28;20479;-66
2022/02/10 23:39:46;;;;;;;17.10;1.80;;;;;;;-142.75;100.00;78657.41;5031772;28;20065;-66
2022/02/10 23:44:31;;;;;;;10.27;1.90;;;;;;;-142.75;100.00;78667.25;5032040;28;20041;-66
2022/02/10 23:46:58;;;;;;;8.50;1.87;;;;;;;-142.75;100.00;78667.25;5031884;28;20025;-66
2022/02/10 23:49:25;;;;;;;11.43;1.40;;;;;;;-142.75;100.00;78667.25;5029896;28;20028;-66
2022/02/10 23:51:57;;;;;;;7.03;1.33;;;;;;;-142.75;100.00;78669.25;5031702;28;20018;-67
2022/02/10 23:54:24;;;;;;;12.10;1.73;;;;;;;-142.75;100.00;78671.22;5031759;28;20021;-66
2022/02/10 23:56:57;;;;;;;9.10;1.53;;;;;;;-142.75;100.00;78679.09;5030353;28;20056;-66
